Time;durP1;ratioP1;P1;durP2;ratioP2;P2;SDS_P1;SDS_P2;PMS_P1;PMS_P2;Temp;Humidity;BMP_temperature;BMP_pressure;BME280_temperature;BME280_humidity;BME280_pressure;Samples;Min_cycle;Max_cycle;Signal;HPM_P1;HPM_P2
2022/10/08 00:02:13;;;;;;;9.07;1.73;;;;;19.50;101437.00;;;;5089607;28;20551;-77
2022/10/08 00:04:41;;;;;;;1.63;0.63;;;;;19.50;101432.00;;;;5090890;28;20205;-77
2022/10/08 00:07:08;;;;;;;4.40;0.93;;;;;19.50;101429.00;;;;5090278;28;20201;-77
2022/10/08 00:09:35;;;;;;;6.60;0.90;;;;;19.50;101429.00;;;;5090100;28;20206;-77
2022/10/08 00:12:03;;;;;;;3.97;1.00;;;;;19.50;101426.00;;;;5090121;28;20206;-78
2022/10/08 00:14:30;;;;;;;3.08;0.80;;;;;19.50;101429.00;;;;5089743;28;20226;-77
2022/10/08 00:16:57;;;;;;;1.52;0.60;;;;;19.50;101438.00;;;;5073578;28;20195;-78
2022/10/08 00:19:26;;;;;;;3.85;0.88;;;;;19.50;101446.00;;;;5089947;28;20221;-78
2022/10/08 00:21:55;;;;;;;2.25;0.52;;;;;19.50;101450.00;;;;5089920;28;20205;-78
2022/10/08 00:24:23;;;;;;;3.42;1.02;;;;;19.50;101448.00;;;;5082321;28;20207;-78
2022/10/08 00:26:51;;;;;;;1.85;0.50;;;;;19.50;101442.00;;;;5074478;28;20656;-78
2022/10/08 00:29:20;;;;;;;1.95;0.40;;;;;19.50;101441.00;;;;5084578;28;20234;-78
2022/10/08 00:31:50;;;;;;;1.13;0.57;;;;;19.40;101446.00;;;;5070398;28;20199;-78
2022/10/08 00:34:21;;;;;;;3.42;0.68;;;;;19.40;101437.00;;;;5085974;28;20236;-78
2022/10/08 00:36:52;;;;;;;3.20;0.35;;;;;19.40;101427.00;;;;5086083;28;20197;-78
2022/10/08 00:39:21;;;;;;;0.57;0.32;;;;;19.40;101429.00;;;;5088208;28;20205;-78
2022/10/08 00:41:52;;;;;;;1.05;0.40;;;;;19.40;101425.00;;;;5089385;28;20201;-78
2022/10/08 00:44:51;;;;;;;1.90;0.40;;;;;19.30;101431.00;;;;5088696;28;20566;-78
2022/10/08 00:47:22;;;;;;;1.60;0.60;;;;;19.40;101433.00;;;;5088844;28;20194;-78
2022/10/08 00:49:53;;;;;;;1.20;0.50;;;;;19.40;101438.00;;;;5089801;28;20199;-78
2022/10/08 00:52:22;;;;;;;1.25;0.38;;;;;19.30;101436.00;;;;5082419;28;20207;-78
2022/10/08 00:54:50;;;;;;;0.50;0.20;;;;;19.40;101438.00;;;;5076697;28;20205;-78
2022/10/08 00:57:18;;;;;;;2.00;0.65;;;;;19.40;101442.00;;;;5089690;28;20287;-78
2022/10/08 00:59:46;;;;;;;0.95;0.40;;;;;19.40;101433.00;;;;5088905;28;20197;-77
2022/10/08 01:02:13;;;;;;;1.08;0.30;;;;;19.40;101422.00;;;;5071152;28;20573;-78
2022/10/08 01:04:42;;;;;;;2.28;0.40;;;;;19.30;101431.00;;;;5087906;28;20284;-78
2022/10/08 01:07:17;;;;;;;1.30;0.20;;;;;19.30;101427.00;;;;5078443;28;20195;-79
2022/10/08 01:09:55;;;;;;;1.58;0.30;;;;;19.30;101430.00;;;;5088776;28;20284;-79
2022/10/08 01:12:31;;;;;;;0.43;0.28;;;;;19.30;101428.00;;;;5085767;28;20194;-79
2022/10/08 01:15:03;;;;;;;0.13;0.10;;;;;19.30;101425.00;;;;5088501;28;20217;-79
2022/10/08 01:17:38;;;;;;;1.83;0.50;;;;;19.30;101433.00;;;;5083011;28;20200;-79
2022/10/08 01:20:28;;;;;;;0.57;0.25;;;;;19.30;101433.00;;;;5072610;28;20682;-79
2022/10/08 01:23:18;;;;;;;1.63;0.40;;;;;19.20;101437.00;;;;5084555;28;20260;-78
2022/10/08 01:25:55;;;;;;;1.08;0.40;;;;;19.30;101432.00;;;;5088027;28;20194;-78
2022/10/08 01:28:30;;;;;;;0.80;0.30;;;;;19.20;101432.00;;;;5083905;28;20194;-78
2022/10/08 01:31:01;;;;;;;2.55;0.40;;;;;19.30;101425.00;;;;5082209;28;20202;-78
2022/10/08 01:33:35;;;;;;;2.08;0.63;;;;;19.30;101432.00;;;;5072470;28;20214;-78
2022/10/08 01:36:05;;;;;;;1.88;0.85;;;;;19.30;101430.00;;;;5074076;28;20207;-78
2022/10/08 01:38:38;;;;;;;1.17;0.28;;;;;19.20;101432.00;;;;5077894;28;20197;-78
2022/10/08 01:41:09;;;;;;;1.23;0.50;;;;;19.20;101432.00;;;;5085111;28;20565;-78
2022/10/08 01:43:40;;;;;;;1.60;0.60;;;;;19.20;101429.00;;;;5076398;28;20214;-78
2022/10/08 01:46:14;;;;;;;1.27;0.60;;;;;19.20;101427.00;;;;5082974;28;20200;-78
2022/10/08 01:48:44;;;;;;;0.60;0.52;;;;;19.20;101429.00;;;;5074280;28;20195;-78
2022/10/08 01:51:16;;;;;;;2.90;0.60;;;;;19.20;101436.00;;;;5082383;28;21493;-78
2022/10/08 01:53:48;;;;;;;1.45;0.73;;;;;19.20;101436.00;;;;5087349;28;20222;-78
2022/10/08 01:56:19;;;;;;;3.25;1.08;;;;;19.20;101435.00;;;;5087349;28;20201;-78
2022/10/08 01:58:53;;;;;;;1.13;0.82;;;;;19.20;101429.00;;;;5079605;28;20190;-78
2022/10/08 02:01:27;;;;;;;2.10;0.98;;;;;19.20;101428.00;;;;5079524;28;20271;-78
2022/10/08 02:06:44;;;;;;;3.63;1.13;;;;;19.20;101435.00;;;;5087889;28;20589;-78
2022/10/08 02:09:12;;;;;;;3.03;1.27;;;;;19.20;101432.00;;;;5088131;28;20197;-78
2022/10/08 02:11:40;;;;;;;2.58;1.65;;;;;19.20;101436.00;;;;5068158;28;20670;-78
2022/10/08 02:14:10;;;;;;;2.60;1.17;;;;;19.20;101440.00;;;;5078895;28;20236;-78
2022/10/08 02:16:42;;;;;;;1.55;1.20;;;;;19.20;101442.00;;;;5086964;28;20214;-78
2022/10/08 02:19:15;;;;;;;1.30;0.95;;;;;19.20;101444.00;;;;5086909;28;20655;-78
2022/10/08 02:21:44;;;;;;;1.80;0.95;;;;;19.20;101450.00;;;;5073018;28;20190;-78
2022/10/08 02:24:17;;;;;;;2.25;1.25;;;;;19.20;101444.00;;;;5087472;28;20210;-79
2022/10/08 02:26:49;;;;;;;2.35;1.30;;;;;19.10;101445.00;;;;5086331;28;20201;-78
2022/10/08 02:29:24;;;;;;;1.65;1.20;;;;;19.10;101451.00;;;;5084070;28;20237;-78
2022/10/08 02:31:57;;;;;;;2.75;0.82;;;;;19.10;101448.00;;;;5080111;28;20268;-78
2022/10/08 02:34:29;;;;;;;1.45;1.27;;;;;19.10;101449.00;;;;5079529;28;20218;-78
2022/10/08 02:37:03;;;;;;;0.80;0.70;;;;;19.10;101452.00;;;;5088660;28;20220;-78
2022/10/08 02:39:34;;;;;;;3.00;1.20;;;;;19.10;101455.00;;;;5085968;28;20194;-78
2022/10/08 02:42:04;;;;;;;1.90;0.70;;;;;19.10;101447.00;;;;5076239;28;20187;-78
2022/10/08 02:44:39;;;;;;;2.40;1.10;;;;;19.10;101442.00;;;;5087616;28;20198;-78
2022/10/08 02:47:10;;;;;;;1.85;0.77;;;;;19.10;101448.00;;;;5082208;28;20574;-78
2022/10/08 02:49:40;;;;;;;3.30;0.90;;;;;19.10;101449.00;;;;5086728;28;20202;-78
2022/10/08 02:52:10;;;;;;;2.45;0.65;;;;;19.10;101447.00;;;;5087197;28;20198;-79
2022/10/08 02:54:41;;;;;;;2.50;0.82;;;;;19.00;101449.00;;;;5087212;28;20222;-78
2022/10/08 02:57:14;;;;;;;3.40;0.88;;;;;19.00;101460.00;;;;5086629;28;20292;-79
2022/10/08 02:59:43;;;;;;;3.53;0.63;;;;;19.00;101454.00;;;;5078570;28;20202;-79
2022/10/08 03:02:17;;;;;;;3.15;1.10;;;;;19.00;101448.00;;;;5081695;28;20194;-78
2022/10/08 03:04:55;;;;;;;2.42;1.00;;;;;18.90;101453.00;;;;5085639;28;20190;-78
2022/10/08 03:07:23;;;;;;;2.88;0.80;;;;;19.00;101453.00;;;;5082242;28;20194;-78
2022/10/08 03:09:53;;;;;;;2.10;0.85;;;;;19.00;101454.00;;;;5086471;28;20214;-78
2022/10/08 03:12:20;;;;;;;3.13;1.38;;;;;19.00;101452.00;;;;5083225;28;20214;-78
2022/10/08 03:14:51;;;;;;;1.50;0.80;;;;;18.90;101462.00;;;;5080684;28;20226;-78
2022/10/08 03:17:23;;;;;;;2.10;0.98;;;;;18.90;101458.00;;;;5090653;28;20206;-78
2022/10/08 03:19:51;;;;;;;2.08;0.90;;;;;18.90;101462.00;;;;5089601;28;20194;-78
2022/10/08 03:22:19;;;;;;;1.77;0.80;;;;;18.90;101460.00;;;;5081666;28;20621;-78
2022/10/08 03:24:46;;;;;;;2.80;1.20;;;;;18.90;101461.00;;;;5071555;28;20190;-78
2022/10/08 03:27:14;;;;;;;4.18;1.60;;;;;18.90;101461.00;;;;5073477;28;20190;-78
2022/10/08 03:29:41;;;;;;;1.20;1.00;;;;;18.90;101467.00;;;;5087824;28;20621;-78
2022/10/08 03:32:10;;;;;;;2.75;1.13;;;;;18.80;101473.00;;;;5078653;28;20210;-78
2022/10/08 03:34:37;;;;;;;3.80;1.20;;;;;18.80;101469.00;;;;5082829;28;20222;-78
2022/10/08 03:37:04;;;;;;;4.30;1.13;;;;;18.80;101471.00;;;;5085850;28;20194;-78
2022/10/08 03:39:32;;;;;;;2.95;1.00;;;;;18.80;101476.00;;;;5089920;28;20575;-78
2022/10/08 03:41:59;;;;;;;3.70;0.75;;;;;18.80;101478.00;;;;5087563;28;20349;-78
2022/10/08 03:44:26;;;;;;;1.60;1.48;;;;;18.80;101489.00;;;;5087526;28;20231;-78
2022/10/08 03:46:53;;;;;;;1.67;1.08;;;;;18.70;101481.00;;;;5075858;28;20205;-78
2022/10/08 03:49:22;;;;;;;3.50;1.30;;;;;18.70;101488.00;;;;5090730;28;20201;-78
2022/10/08 03:51:49;;;;;;;2.17;1.10;;;;;18.70;101489.00;;;;5085953;28;20570;-78
2022/10/08 03:54:17;;;;;;;1.83;1.10;;;;;18.70;101495.00;;;;5082046;28;20598;-78
2022/10/08 03:56:44;;;;;;;1.73;1.00;;;;;18.70;101497.00;;;;5091583;28;20194;-78
2022/10/08 03:59:11;;;;;;;1.42;1.10;;;;;18.70;101501.00;;;;5087318;28;20297;-78
2022/10/08 04:01:38;;;;;;;1.45;1.00;;;;;18.70;101505.00;;;;5090086;28;20194;-78
2022/10/08 04:04:06;;;;;;;1.80;1.08;;;;;18.70;101511.00;;;;5083865;28;20202;-78
2022/10/08 04:06:34;;;;;;;1.80;1.08;;;;;18.70;101510.00;;;;5086835;28;20536;-78
2022/10/08 04:09:02;;;;;;;2.63;1.52;;;;;18.70;101510.00;;;;5089145;28;20212;-78
2022/10/08 04:11:29;;;;;;;4.38;1.38;;;;;18.70;101510.00;;;;5090701;28;20699;-78
2022/10/08 04:13:57;;;;;;;2.72;1.10;;;;;18.70;101511.00;;;;5081023;28;20218;-78
2022/10/08 04:16:24;;;;;;;1.05;0.90;;;;;18.70;101513.00;;;;5073003;28;20226;-78
2022/10/08 04:18:51;;;;;;;2.55;1.10;;;;;18.70;101505.00;;;;5089442;28;20199;-78
2022/10/08 04:21:20;;;;;;;2.33;1.35;;;;;18.70;101512.00;;;;5090522;28;20205;-78
2022/10/08 04:23:49;;;;;;;3.90;1.27;;;;;18.60;101513.00;;;;5089416;28;20201;-78
2022/10/08 04:26:17;;;;;;;1.77;0.90;;;;;18.60;101506.00;;;;5087648;28;20198;-78
2022/10/08 04:28:45;;;;;;;2.38;1.00;;;;;18.60;101507.00;;;;5080883;28;20692;-79
2022/10/08 04:31:16;;;;;;;2.40;1.25;;;;;18.60;101512.00;;;;5089106;28;20213;-78
2022/10/08 04:33:44;;;;;;;3.50;1.30;;;;;18.60;101514.00;;;;5083515;28;20198;-78
2022/10/08 04:36:13;;;;;;;2.80;1.20;;;;;18.50;101516.00;;;;5087723;28;20671;-78
2022/10/08 04:38:42;;;;;;;1.35;0.98;;;;;18.50;101517.00;;;;5076169;28;20198;-78
2022/10/08 04:41:12;;;;;;;3.75;1.25;;;;;18.50;101512.00;;;;5073898;28;20590;-79
2022/10/08 04:43:41;;;;;;;7.50;1.40;;;;;18.50;101511.00;;;;5085103;28;20647;-79
2022/10/08 04:46:11;;;;;;;3.05;1.60;;;;;18.50;101521.00;;;;5088225;28;20217;-80
2022/10/08 04:48:39;;;;;;;4.35;1.52;;;;;18.40;101520.00;;;;5087911;28;20484;-78
2022/10/08 04:51:07;;;;;;;3.20;1.30;;;;;18.40;101523.00;;;;5084404;28;20215;-80
2022/10/08 04:53:35;;;;;;;2.08;1.25;;;;;18.40;101521.00;;;;5076143;28;20205;-79
2022/10/08 04:56:11;;;;;;;5.38;2.13;;;;;18.30;101520.00;;;;5077409;28;20222;-79
2022/10/08 04:58:39;;;;;;;2.88;1.20;;;;;18.40;101527.00;;;;5072953;28;20199;-79
2022/10/08 05:01:08;;;;;;;2.25;1.10;;;;;18.40;101537.00;;;;5078153;28;20685;-79
2022/10/08 05:03:37;;;;;;;2.13;1.30;;;;;18.30;101537.00;;;;5074430;28;20572;-79
2022/10/08 05:06:06;;;;;;;2.10;1.35;;;;;18.30;101534.00;;;;5075711;28;20198;-79
2022/10/08 05:08:34;;;;;;;3.42;1.40;;;;;18.30;101544.00;;;;5077492;28;20248;-79
2022/10/08 05:11:01;;;;;;;3.65;1.67;;;;;18.30;101545.00;;;;5083527;28;20213;-79
2022/10/08 05:13:30;;;;;;;2.08;1.20;;;;;18.30;101543.00;;;;5079126;28;20206;-79
2022/10/08 05:16:04;;;;;;;2.22;1.35;;;;;18.20;101552.00;;;;5082504;28;20680;-80
2022/10/08 05:18:32;;;;;;;3.15;1.27;;;;;18.20;101553.00;;;;5082420;28;20202;-80
2022/10/08 05:21:04;;;;;;;3.35;1.60;;;;;18.20;101554.00;;;;5080634;28;20601;-80
2022/10/08 05:23:31;;;;;;;2.25;1.35;;;;;18.20;101559.00;;;;5085212;28;20659;-80
2022/10/08 05:25:58;;;;;;;7.28;2.22;;;;;18.20;101555.00;;;;5088204;28;20204;-79
2022/10/08 05:28:26;;;;;;;3.83;1.83;;;;;18.10;101563.00;;;;5088215;28;20942;-79
2022/10/08 05:31:00;;;;;;;4.60;1.65;;;;;18.10;101564.00;;;;5088273;28;20225;-78
2022/10/08 05:33:28;;;;;;;2.67;1.17;;;;;18.10;101566.00;;;;5087977;28;20574;-80
2022/10/08 05:35:55;;;;;;;3.38;1.15;;;;;18.10;101568.00;;;;5072798;28;20233;-80
2022/10/08 05:38:22;;;;;;;4.22;1.92;;;;;18.10;101572.00;;;;5087727;28;20618;-80
2022/10/08 05:40:50;;;;;;;3.58;1.48;;;;;18.10;101579.00;;;;5088701;28;20206;-80
2022/10/08 05:43:17;;;;;;;4.97;2.17;;;;;18.00;101583.00;;;;5087491;28;20578;-80
2022/10/08 05:45:50;;;;;;;3.70;1.40;;;;;17.90;101589.00;;;;5082965;28;20199;-80
2022/10/08 05:48:19;;;;;;;2.05;1.38;;;;;18.00;101596.00;;;;5085342;28;20203;-79
2022/10/08 05:50:46;;;;;;;3.00;1.38;;;;;18.00;101587.00;;;;5084551;28;20206;-79
2022/10/08 05:53:13;;;;;;;2.10;1.23;;;;;17.90;101598.00;;;;5070598;28;20195;-80
2022/10/08 05:55:41;;;;;;;1.85;1.40;;;;;17.90;101601.00;;;;5087994;28;20233;-80
2022/10/08 05:58:08;;;;;;;3.17;1.70;;;;;17.90;101596.00;;;;5086412;28;20206;-79
2022/10/08 06:00:35;;;;;;;2.60;1.45;;;;;17.90;101614.00;;;;5086487;28;20194;-80
2022/10/08 06:03:03;;;;;;;3.33;1.90;;;;;17.90;101609.00;;;;5085389;28;20193;-79
2022/10/08 06:05:31;;;;;;;5.05;1.80;;;;;17.80;101616.00;;;;5087824;28;20206;-79
2022/10/08 06:07:59;;;;;;;3.45;1.75;;;;;17.80;101614.00;;;;5084996;28;20211;-79
2022/10/08 06:10:26;;;;;;;2.85;1.45;;;;;17.80;101622.00;;;;5083537;28;20194;-81
2022/10/08 06:12:54;;;;;;;3.70;1.23;;;;;17.80;101630.00;;;;5076851;28;20191;-80
2022/10/08 06:15:21;;;;;;;3.05;1.30;;;;;17.80;101634.00;;;;5078730;28;20257;-79
2022/10/08 06:17:50;;;;;;;3.42;1.40;;;;;17.80;101629.00;;;;5080146;28;20198;-79
2022/10/08 06:20:18;;;;;;;2.83;1.35;;;;;17.80;101641.00;;;;4940788;28;20205;-79
2022/10/08 06:22:46;;;;;;;1.55;1.10;;;;;17.70;101650.00;;;;5065004;28;20207;-80
2022/10/08 06:25:14;;;;;;;2.20;1.23;;;;;17.70;101659.00;;;;5064305;28;20214;-80
2022/10/08 06:27:41;;;;;;;1.67;1.20;;;;;17.70;101663.00;;;;5076114;28;20202;-81
2022/10/08 06:30:10;;;;;;;2.80;1.17;;;;;17.70;101669.00;;;;5076473;28;20227;-80
2022/10/08 06:32:37;;;;;;;1.83;1.10;;;;;17.70;101666.00;;;;5083487;28;20571;-80
2022/10/08 06:35:05;;;;;;;3.25;0.98;;;;;17.70;101672.00;;;;5082616;28;20229;-80
2022/10/08 06:37:33;;;;;;;2.17;0.95;;;;;17.70;101679.00;;;;5081191;28;20206;-80
2022/10/08 06:40:01;;;;;;;2.30;1.33;;;;;17.60;101682.00;;;;5087917;28;20202;-80
2022/10/08 06:42:28;;;;;;;4.47;1.10;;;;;17.70;101687.00;;;;5071385;28;20201;-79
2022/10/08 06:44:56;;;;;;;1.45;1.02;;;;;17.70;101693.00;;;;5088789;28;20206;-79
2022/10/08 06:47:23;;;;;;;3.00;1.10;;;;;17.70;101686.00;;;;5092496;28;20209;-78
2022/10/08 06:49:50;;;;;;;3.03;1.00;;;;;17.70;101697.00;;;;5075618;28;20203;-80
2022/10/08 06:52:17;;;;;;;3.70;1.00;;;;;17.70;101703.00;;;;5074908;28;20202;-80
2022/10/08 06:54:45;;;;;;;2.20;1.23;;;;;17.70;101706.00;;;;5076981;28;20226;-80
2022/10/08 06:57:13;;;;;;;4.90;1.50;;;;;17.70;101706.00;;;;5088478;28;20202;-79
2022/10/08 06:59:41;;;;;;;3.10;1.80;;;;;17.80;101706.00;;;;5072931;28;20598;-79
2022/10/08 07:02:09;;;;;;;3.85;1.58;;;;;17.80;101708.00;;;;5071846;28;20620;-79
2022/10/08 07:04:37;;;;;;;4.18;1.30;;;;;17.90;101718.00;;;;5071751;28;20199;-79
2022/10/08 07:07:04;;;;;;;3.83;0.85;;;;;17.90;101719.00;;;;5071326;28;20203;-78
2022/10/08 07:09:31;;;;;;;2.47;0.70;;;;;17.90;101729.00;;;;5085302;28;20719;-79
2022/10/08 07:11:59;;;;;;;2.67;0.80;;;;;18.00;101727.00;;;;5090871;28;20285;-80
2022/10/08 07:14:27;;;;;;;5.25;1.05;;;;;18.00;101733.00;;;;5091791;28;20206;-80
2022/10/08 07:16:55;;;;;;;4.40;1.52;;;;;18.00;101737.00;;;;5078732;28;20216;-80
2022/10/08 07:19:23;;;;;;;1.70;0.88;;;;;18.10;101740.00;;;;5071115;28;20671;-80
2022/10/08 07:21:50;;;;;;;2.58;1.10;;;;;18.10;101742.00;;;;5074059;28;20199;-78
2022/10/08 07:24:17;;;;;;;3.00;0.93;;;;;18.10;101741.00;;;;5083125;28;20195;-78
2022/10/08 07:26:45;;;;;;;5.22;0.70;;;;;18.20;101745.00;;;;5086670;28;20206;-78
2022/10/08 07:29:15;;;;;;;4.47;0.68;;;;;18.20;101746.00;;;;5090557;28;20238;-79
2022/10/08 07:31:43;;;;;;;2.55;0.82;;;;;18.20;101743.00;;;;5071244;28;20223;-78
2022/10/08 07:34:12;;;;;;;3.25;0.80;;;;;18.30;101753.00;;;;5080992;28;20195;-78
2022/10/08 07:36:40;;;;;;;2.33;0.75;;;;;18.30;101758.00;;;;5087516;28;20222;-78
2022/10/08 07:39:11;;;;;;;4.97;1.45;;;;;18.30;101759.00;;;;5089232;28;20731;-78
2022/10/08 07:41:38;;;;;;;1.48;0.55;;;;;18.40;101770.00;;;;5091651;28;20560;-78
2022/10/08 07:44:06;;;;;;;3.33;0.73;;;;;18.50;101769.00;;;;5091215;28;20204;-78
2022/10/08 07:46:36;;;;;;;4.97;1.10;;;;;18.50;101769.00;;;;5088184;28;20195;-78
2022/10/08 07:49:05;;;;;;;1.30;0.50;;;;;18.50;101781.00;;;;5085137;28;20214;-79
2022/10/08 07:51:34;;;;;;;2.55;0.55;;;;;18.60;101786.00;;;;5085255;28;21519;-78
2022/10/08 07:54:02;;;;;;;3.80;0.82;;;;;18.70;101781.00;;;;5084706;28;20198;-78
2022/10/08 07:56:30;;;;;;;4.70;1.23;;;;;18.70;101783.00;;;;5090539;28;20229;-78
2022/10/08 07:58:58;;;;;;;2.92;0.70;;;;;18.80;101787.00;;;;5076184;28;20615;-78
2022/10/08 08:01:28;;;;;;;4.18;1.00;;;;;18.80;101787.00;;;;5087210;28;20194;-78
2022/10/08 08:03:57;;;;;;;5.40;0.80;;;;;18.80;101803.00;;;;5084903;28;20191;-78
2022/10/08 08:06:26;;;;;;;3.85;0.70;;;;;18.90;101798.00;;;;5070003;28;20211;-78
2022/10/08 08:08:53;;;;;;;4.10;0.98;;;;;18.90;101805.00;;;;5070786;28;20202;-79
2022/10/08 08:11:23;;;;;;;3.15;0.55;;;;;19.00;101812.00;;;;5070386;28;20199;-78
2022/10/08 08:13:51;;;;;;;2.20;0.63;;;;;19.00;101817.00;;;;5070972;28;20191;-78
2022/10/08 08:16:20;;;;;;;4.80;0.88;;;;;19.10;101823.00;;;;5072969;28;20236;-78
2022/10/08 08:18:49;;;;;;;2.78;0.52;;;;;19.10;101834.00;;;;5090723;28;20205;-77
2022/10/08 08:21:18;;;;;;;3.38;0.60;;;;;19.20;101829.00;;;;5090337;28;20683;-78
2022/10/08 08:23:48;;;;;;;7.20;0.80;;;;;19.20;101832.00;;;;5084180;28;20569;-77
2022/10/08 08:26:17;;;;;;;1.40;0.73;;;;;19.20;101831.00;;;;5087426;28;20202;-77
2022/10/08 08:28:45;;;;;;;3.92;0.73;;;;;19.30;101838.00;;;;5089266;28;20234;-77
2022/10/08 08:31:14;;;;;;;1.95;0.43;;;;;19.30;101844.00;;;;5089674;28;20206;-78
2022/10/08 08:33:43;;;;;;;1.27;0.50;;;;;19.40;101846.00;;;;5089512;28;20210;-79
2022/10/08 08:36:11;;;;;;;3.60;0.68;;;;;19.50;101853.00;;;;5089622;28;20218;-77
2022/10/08 08:38:38;;;;;;;3.33;0.45;;;;;19.50;101853.00;;;;5086282;28;20202;-77
2022/10/08 08:41:14;;;;;;;3.00;0.57;;;;;19.50;101855.00;;;;5070009;28;20214;-77
2022/10/08 08:43:42;;;;;;;4.57;0.70;;;;;19.60;101863.00;;;;5078410;28;20660;-77
2022/10/08 08:46:14;;;;;;;2.35;0.60;;;;;19.60;101863.00;;;;5090376;28;20562;-77
2022/10/08 08:48:45;;;;;;;2.53;0.40;;;;;19.70;101870.00;;;;5084500;28;20622;-77
2022/10/08 08:51:12;;;;;;;1.10;0.40;;;;;19.80;101870.00;;;;5080409;28;20205;-78
2022/10/08 08:53:40;;;;;;;2.75;0.73;;;;;19.80;101877.00;;;;5078137;28;20639;-79
2022/10/08 08:56:15;;;;;;;1.38;0.60;;;;;19.90;101878.00;;;;5087385;28;20216;-77
2022/10/08 08:58:48;;;;;;;2.00;0.60;;;;;20.00;101880.00;;;;5074934;28;20205;-77
2022/10/08 09:01:24;;;;;;;2.85;0.40;;;;;20.10;101893.00;;;;5076956;28;20274;-77
2022/10/08 09:03:54;;;;;;;2.10;0.70;;;;;20.20;101903.00;;;;5070007;28;20213;-78
2022/10/08 09:06:24;;;;;;;4.05;0.47;;;;;20.20;101887.00;;;;5068994;28;20203;-78
2022/10/08 09:08:56;;;;;;;2.75;1.02;;;;;20.20;101886.00;;;;5078818;28;20202;-78
2022/10/08 09:11:25;;;;;;;2.92;0.40;;;;;20.30;101896.00;;;;5076899;28;20202;-76
2022/10/08 09:13:58;;;;;;;2.60;0.63;;;;;20.30;101900.00;;;;5069673;28;20568;-77
2022/10/08 09:16:27;;;;;;;5.35;0.90;;;;;20.40;101901.00;;;;5086114;28;20236;-78
2022/10/08 09:18:55;;;;;;;4.75;0.88;;;;;20.40;101912.00;;;;5089585;28;20378;-77
2022/10/08 09:21:29;;;;;;;2.95;0.57;;;;;20.40;101915.00;;;;5073771;28;20206;-77
2022/10/08 09:23:56;;;;;;;3.28;1.02;;;;;20.50;101912.00;;;;5076609;28;20195;-77
2022/10/08 09:26:30;;;;;;;2.03;0.55;;;;;20.50;101921.00;;;;5075892;28;20209;-76
2022/10/08 09:28:59;;;;;;;2.78;0.55;;;;;20.50;101916.00;;;;5083371;28;20700;-76
2022/10/08 09:31:30;;;;;;;2.90;0.50;;;;;20.60;101916.00;;;;5082417;28;20637;-77
2022/10/08 09:34:15;;;;;;;2.95;0.40;;;;;20.60;101912.00;;;;5085009;28;20558;-78
2022/10/08 09:36:45;;;;;;;2.92;0.50;;;;;20.70;101916.00;;;;5078925;28;20223;-79
2022/10/08 09:39:19;;;;;;;1.73;0.52;;;;;20.70;101919.00;;;;5069353;28;20611;-82
2022/10/08 09:42:04;;;;;;;2.78;0.50;;;;;20.80;101931.00;;;;5086553;28;20746;-79
2022/10/08 09:44:40;;;;;;;3.67;0.55;;;;;20.80;101918.00;;;;5077917;28;20198;-80
2022/10/08 09:47:11;;;;;;;2.20;0.60;;;;;20.90;101924.00;;;;5073252;28;20197;-80
2022/10/08 09:49:39;;;;;;;1.10;0.60;;;;;21.00;101929.00;;;;5074481;28;20616;-80
2022/10/08 09:52:12;;;;;;;1.17;0.50;;;;;21.00;101944.00;;;;5082992;28;20729;-80
2022/10/08 09:54:47;;;;;;;3.33;0.77;;;;;21.00;101980.00;;;;5082461;28;20198;-79
2022/10/08 09:57:17;;;;;;;3.30;0.40;;;;;20.90;101961.00;;;;5084280;28;20305;-79
2022/10/08 09:59:51;;;;;;;1.38;0.40;;;;;20.70;101967.00;;;;5090283;28;20198;-78
2022/10/08 10:02:30;;;;;;;2.30;0.55;;;;;20.60;101964.00;;;;5086159;28;20299;-78
2022/10/08 10:04:59;;;;;;;2.80;0.57;;;;;20.60;101965.00;;;;5087319;28;20210;-78
2022/10/08 10:07:38;;;;;;;2.50;0.80;;;;;20.40;101966.00;;;;5082620;28;20202;-79
2022/10/08 10:10:16;;;;;;;5.43;1.63;;;;;20.40;101974.00;;;;5083347;28;20251;-79
2022/10/08 10:12:48;;;;;;;5.82;0.70;;;;;20.40;101971.00;;;;5095913;28;20234;-79
2022/10/08 10:15:21;;;;;;;1.73;0.50;;;;;20.40;101968.00;;;;5088075;28;20221;-79
2022/10/08 10:17:54;;;;;;;2.92;0.90;;;;;20.50;101971.00;;;;5093104;28;20571;-79
2022/10/08 10:20:26;;;;;;;1.25;0.47;;;;;20.60;101972.00;;;;5092316;28;20198;-80
2022/10/08 10:22:58;;;;;;;1.70;0.63;;;;;20.70;101965.00;;;;5083662;28;20201;-79
2022/10/08 10:25:34;;;;;;;3.15;0.57;;;;;20.80;101970.00;;;;5080150;28;20199;-79
2022/10/08 10:28:08;;;;;;;1.75;0.60;;;;;20.90;101969.00;;;;5087810;28;20513;-79
2022/10/08 10:30:47;;;;;;;4.07;0.77;;;;;21.00;101983.00;;;;5084599;28;20598;-79
2022/10/08 10:33:19;;;;;;;2.60;0.50;;;;;21.10;101982.00;;;;5083298;28;20285;-79
2022/10/08 10:35:53;;;;;;;2.58;0.57;;;;;21.10;101987.00;;;;5075066;28;20203;-80
2022/10/08 10:38:24;;;;;;;1.95;0.40;;;;;21.00;101997.00;;;;5084290;28;20458;-79
2022/10/08 10:41:03;;;;;;;2.00;0.75;;;;;20.90;102001.00;;;;5074731;28;20198;-79
2022/10/08 10:43:39;;;;;;;1.00;0.20;;;;;20.90;101993.00;;;;5080635;28;20301;-79
2022/10/08 10:46:28;;;;;;;3.65;0.55;;;;;20.80;101997.00;;;;5071593;28;20652;-78
2022/10/08 10:48:56;;;;;;;1.77;0.45;;;;;20.80;102008.00;;;;5071473;28;20194;-78
2022/10/08 10:51:45;;;;;;;5.15;0.98;;;;;20.60;102009.00;;;;5083500;28;20194;-79
2022/10/08 10:54:30;;;;;;;2.10;0.60;;;;;20.70;102002.00;;;;5071114;28;20203;-80
2022/10/08 10:57:04;;;;;;;1.88;0.38;;;;;20.80;101999.00;;;;5070331;28;20249;-80
2022/10/08 10:59:46;;;;;;;4.47;0.63;;;;;20.80;102010.00;;;;5077492;28;21146;-80
2022/10/08 11:02:21;;;;;;;2.25;0.43;;;;;20.90;102001.00;;;;5084122;28;20210;-79
2022/10/08 11:04:57;;;;;;;1.85;0.70;;;;;21.00;102002.00;;;;5071254;28;20197;-80
2022/10/08 11:07:46;;;;;;;4.85;0.80;;;;;21.10;102007.00;;;;5079103;28;20202;-79
2022/10/08 11:10:29;;;;;;;2.53;0.55;;;;;21.20;102016.00;;;;5078343;28;20203;-81
2022/10/08 11:13:05;;;;;;;3.08;0.80;;;;;21.30;102019.00;;;;5084253;28;20201;-78
2022/10/08 11:15:41;;;;;;;2.95;0.60;;;;;21.30;102018.00;;;;5086196;28;20221;-80
2022/10/08 11:18:20;;;;;;;2.20;0.38;;;;;21.30;102021.00;;;;5089117;28;20206;-80
2022/10/08 11:21:02;;;;;;;1.52;0.47;;;;;21.40;102015.00;;;;5086766;28;20194;-80
2022/10/08 11:23:56;;;;;;;1.95;0.70;;;;;21.40;102023.00;;;;5088751;28;20206;-81
2022/10/08 11:26:29;;;;;;;1.95;0.43;;;;;21.50;102030.00;;;;5070934;28;20211;-79
2022/10/08 11:29:08;;;;;;;1.73;0.40;;;;;21.40;102022.00;;;;5072623;28;20219;-79
2022/10/08 11:31:41;;;;;;;3.95;0.68;;;;;21.30;102023.00;;;;5090760;28;20607;-79
2022/10/08 11:34:20;;;;;;;3.05;1.25;;;;;21.30;102022.00;;;;5091221;28;20199;-78
2022/10/08 11:37:01;;;;;;;2.15;0.22;;;;;21.30;102024.00;;;;5088310;28;21089;-78
2022/10/08 11:39:34;;;;;;;2.72;0.75;;;;;21.40;102021.00;;;;5080416;28;20190;-78
2022/10/08 11:42:10;;;;;;;1.85;0.40;;;;;21.40;102020.00;;;;5085075;28;20191;-78
2022/10/08 11:44:37;;;;;;;1.52;0.30;;;;;21.50;102024.00;;;;5080529;28;20190;-82
2022/10/08 11:47:52;;;;;;;1.90;0.50;;;;;21.40;102027.00;;;;5087260;28;20194;-79
2022/10/08 11:50:30;;;;;;;3.17;0.50;;;;;21.40;102027.00;;;;5043063;28;20202;-79
2022/10/08 11:53:01;;;;;;;3.30;0.77;;;;;21.40;102024.00;;;;5092192;28;20205;-79
2022/10/08 11:55:32;;;;;;;4.78;0.80;;;;;21.40;102035.00;;;;5092215;28;20209;-81
2022/10/08 11:58:02;;;;;;;3.75;0.80;;;;;21.40;102040.00;;;;5082491;28;20454;-79
2022/10/08 12:00:37;;;;;;;2.65;0.60;;;;;21.30;102037.00;;;;5092226;28;20289;-80
2022/10/08 12:03:18;;;;;;;3.72;1.00;;;;;21.30;102037.00;;;;5083411;28;20466;-80
2022/10/08 12:05:51;;;;;;;1.30;0.30;;;;;21.30;102032.00;;;;5087495;28;20202;-80
2022/10/08 12:08:50;;;;;;;2.33;0.60;;;;;21.20;102035.00;;;;5072251;28;20230;-79
2022/10/08 12:11:52;;;;;;;3.13;0.65;;;;;21.20;102031.00;;;;5085293;28;20208;-79
2022/10/08 12:14:43;;;;;;;2.55;0.50;;;;;21.30;102038.00;;;;5080997;28;20221;-81
2022/10/08 12:17:12;;;;;;;1.63;0.60;;;;;21.40;102038.00;;;;5101721;28;20226;-80
2022/10/08 12:19:58;;;;;;;1.90;0.60;;;;;21.40;102036.00;;;;5095422;28;20257;-81
2022/10/08 12:23:02;;;;;;;2.10;0.50;;;;;21.50;102031.00;;;;5088129;28;20673;-79
2022/10/08 12:25:33;;;;;;;3.70;0.50;;;;;21.70;102030.00;;;;5001099;28;20205;-79
2022/10/08 12:28:37;;;;;;;4.68;0.55;;;;;21.60;102027.00;;;;5021063;28;20194;-77
2022/10/08 12:31:30;;;;;;;2.47;0.60;;;;;21.70;102023.00;;;;5063345;28;20202;-78
2022/10/08 12:34:00;;;;;;;4.25;0.80;;;;;21.90;102028.00;;;;5078133;28;20194;-77